Kenosha, Wisconsin
Current Conditions -  °F | °C
As of 3:53 AM on Saturday 20 Dec 2014 (Local Time) from KENW Reporting Station
Overcast Overcast  
Wind Chill: 22°   Ceiling: 2500
Heat Index: 27°   Visibility: 8mi
Dew Point: 22°   Wind: 5mph
Humidity: 81%   Direction: 290°WNW
Pressure: 30.27"   Gusts: NA
Location:  42.59°N, 87.82°W
Report Text: KENW 200953Z AUTO 29004KT 8SM OVC025 M03/M06 A3027 RMK AO2 SLP261 T10281056
Loading
Personal Weather Stations






























Interactive Weather Map New forecast layout! Learn more

10-Day Weather Forecast

Advertisements
Track Severe Weather on mobile